Time;durP1;ratioP1;P1;durP2;ratioP2;P2;SDS_P1;SDS_P2;PMS_P1;PMS_P2;Temp;Humidity;BMP_temperature;BMP_pressure;BME280_temperature;BME280_humidity;BME280_pressure;Samples;Min_cycle;Max_cycle;Signal;HPM_P1;HPM_P2
2022/05/26 00:05:51;;;;;;;9.23;8.27;;;;;;;10.65;82.43;100247.38;30982115;28;97376;-73
2022/05/26 00:20:52;;;;;;;9.97;8.87;;;;;;;10.65;82.85;100247.38;30982760;28;97519;-74
2022/05/26 00:35:52;;;;;;;11.15;8.25;;;;;;;10.80;82.89;100251.00;30981006;28;99315;-74
2022/05/26 00:51:01;;;;;;;11.38;8.77;;;;;;;10.95;82.36;100258.31;30980032;28;96721;-74
2022/05/26 01:06:27;;;;;;;12.10;8.10;;;;;;;11.16;82.46;100253.22;30978422;28;97511;-74
2022/05/26 01:21:40;;;;;;;8.20;7.40;;;;;;;11.48;82.61;100243.44;30977577;28;96735;-74
2022/05/26 01:36:51;;;;;;;8.50;6.83;;;;;;;11.54;81.60;100227.72;30976782;28;97830;-74
2022/05/26 01:51:57;;;;;;;6.30;5.27;;;;;;;11.32;82.17;100233.66;30975227;28;96744;-73
2022/05/26 02:07:31;;;;;;;7.63;5.57;;;;;;;11.41;81.88;100231.78;30979909;28;96907;-75
2022/05/26 02:22:51;;;;;;;;;;;;;;;11.47;81.83;100240.94;30987032;28;97520;-75
2022/05/26 02:37:59;;;;;;;7.53;5.07;;;;;;;11.57;81.75;100251.38;30994656;28;96705;-75
2022/05/26 02:53:16;;;;;;;7.53;4.90;;;;;;;11.58;80.99;100240.53;30991133;28;96570;-74
2022/05/26 03:08:21;;;;;;;7.00;4.50;;;;;;;11.74;81.13;100238.78;30987466;28;97045;-74
2022/05/26 03:23:22;;;;;;;4.80;3.40;;;;;;;12.07;80.30;100239.41;30986371;28;96673;-75
2022/05/26 03:53:41;;;;;;;5.00;3.10;;;;;;;12.41;77.99;100242.63;30980765;28;96892;-74
2022/05/26 04:08:41;;;;;;;5.13;3.15;;;;;;;12.78;76.77;100255.13;30980659;28;96834;-73
2022/05/26 04:23:42;;;;;;;4.45;2.45;;;;;;;13.36;74.76;100249.97;30978749;28;96770;-73
2022/05/26 04:38:43;;;;;;;2.67;1.88;;;;;;;13.82;71.95;100253.34;30975937;28;97557;-73
2022/05/26 04:53:44;;;;;;;2.10;1.50;;;;;;;14.60;68.78;100269.53;30975093;28;96861;-71
2022/05/26 05:08:46;;;;;;;3.03;1.88;;;;;;;15.59;65.64;100274.84;30969836;28;97438;-68
2022/05/26 05:23:53;;;;;;;3.92;1.70;;;;;;;16.32;62.48;100279.56;30972209;28;96702;-70
2022/05/26 05:38:54;;;;;;;7.77;2.03;;;;;;;16.54;58.87;100289.09;30972760;28;96818;-72
2022/05/26 05:53:55;;;;;;;4.10;1.20;;;;;;;16.96;57.62;100288.03;30992203;28;96684;-68
2022/05/26 06:08:55;;;;;;;3.90;1.60;;;;;;;17.05;57.05;100305.63;30991296;28;96844;-70
2022/05/26 06:23:59;;;;;;;2.95;1.83;;;;;;;17.37;56.03;100314.66;30990186;28;108837;-69
2022/05/26 06:38:59;;;;;;;3.37;2.00;;;;;;;17.93;53.47;100318.59;30989711;28;96778;-69
2022/05/26 06:53:59;;;;;;;4.18;1.52;;;;;;;18.88;51.16;100311.47;30987733;28;97212;-70
2022/05/26 07:09:00;;;;;;;2.47;1.40;;;;;;;19.34;48.43;100317.47;30987494;28;112032;-68
2022/05/26 07:24:01;;;;;;;3.47;1.48;;;;;;;20.35;45.16;100321.56;30982221;28;97187;-70
2022/05/26 07:54:20;;;;;;;3.03;1.10;;;;;;;21.70;39.79;100326.28;30973842;28;97109;-69
2022/05/26 08:09:22;;;;;;;6.10;1.60;;;;;;;22.34;38.14;100319.84;30979503;28;96763;-70
2022/05/26 08:24:24;;;;;;;2.13;0.67;;;;;;;22.78;35.32;100337.13;30965802;28;96829;-71
2022/05/26 08:39:24;;;;;;;1.00;0.60;;;;;;;23.05;35.29;100335.66;30968139;28;97569;-70
2022/05/26 08:54:37;;;;;;;1.60;0.60;;;;;;;23.82;32.98;100344.78;30965893;28;96999;-69
2022/05/26 09:25:32;;;;;;;1.50;0.83;;;;;;;24.54;32.55;100352.91;30959793;28;96788;-70
2022/05/26 09:40:46;;;;;;;5.60;1.00;;;;;;;24.66;33.44;100345.41;30890736;28;98646;-71
2022/05/26 09:55:51;;;;;;;2.40;0.80;;;;;;;23.84;33.06;100358.97;30891754;28;97597;-72
2022/05/26 10:11:25;;;;;;;1.27;0.70;;;;;;;24.74;32.79;100333.19;30889034;28;96739;-70
2022/05/26 10:26:49;;;;;;;3.63;0.90;;;;;;;25.78;32.09;100349.84;30938508;28;97577;-70
2022/05/26 10:41:54;;;;;;;2.90;0.60;;;;;;;25.57;31.01;100350.84;30986616;28;97514;-71
2022/05/26 10:57:06;;;;;;;2.97;0.60;;;;;;;25.50;31.38;100357.38;30983829;28;96800;-72
2022/05/26 11:12:27;;;;;;;1.43;0.67;;;;;;;24.26;33.56;100382.88;30980186;28;99204;-73
2022/05/26 11:27:32;;;;;;;0.67;0.40;;;;;;;24.42;32.85;100377.56;30983834;28;97480;-73
2022/05/26 11:42:38;;;;;;;0.60;0.57;;;;;;;25.05;32.23;100368.81;30978834;28;96995;-74
2022/05/26 11:57:41;;;;;;;1.00;0.47;;;;;;;24.33;32.16;100369.88;30975722;28;97509;-74
2022/05/26 12:12:42;;;;;;;3.03;0.70;;;;;;;24.22;32.25;100349.06;30974806;28;96973;-73
2022/05/26 12:27:48;;;;;;;3.88;0.60;;;;;;;24.26;32.85;100352.94;30978683;28;97542;-73
2022/05/26 12:43:13;;;;;;;1.70;0.50;;;;;;;24.40;30.99;100350.59;30972824;28;97055;-77
2022/05/26 12:58:23;;;;;;;1.27;0.50;;;;;;;24.97;30.27;100324.63;30973253;28;96849;-73
2022/05/26 13:13:24;;;;;;;1.83;0.57;;;;;;;24.31;31.23;100330.34;30974354;28;98500;-74
2022/05/26 13:28:31;;;;;;;3.35;0.52;;;;;;;24.25;31.46;100324.06;30971172;28;97189;-73
2022/05/26 13:43:34;;;;;;;2.03;0.43;;;;;;;24.36;31.35;100321.41;30967976;28;97650;-71
2022/05/26 13:58:37;;;;;;;1.63;0.77;;;;;;;24.13;32.33;100320.69;30969602;28;96908;-73
2022/05/26 14:13:38;;;;;;;1.83;0.50;;;;;;;23.71;32.28;100310.41;30989515;28;97474;-74
2022/05/26 14:28:42;;;;;;;2.00;0.40;;;;;;;23.25;32.58;100297.06;30990599;28;97363;-73
2022/05/26 14:43:45;;;;;;;1.27;0.40;;;;;;;22.92;33.19;100305.03;30987368;28;96657;-72
2022/05/26 14:58:46;;;;;;;3.40;0.60;;;;;;;23.34;33.38;100302.91;30986582;28;97113;-73
2022/05/26 15:13:46;;;;;;;1.20;0.50;;;;;;;23.01;34.55;100296.47;30984487;28;103980;-72
2022/05/26 15:28:51;;;;;;;0.50;0.40;;;;;;;22.80;35.06;100304.31;30983695;28;97044;-72
2022/05/26 15:43:52;;;;;;;3.20;0.60;;;;;;;22.38;35.69;100313.69;30980791;28;96873;-74
2022/05/26 15:58:57;;;;;;;1.63;0.60;;;;;;;22.10;36.69;100303.69;30980778;28;97810;-73
2022/05/26 16:13:59;;;;;;;1.77;0.70;;;;;;;21.73;37.83;100294.06;30979471;28;96724;-75
2022/05/26 16:29:00;;;;;;;2.23;0.60;;;;;;;21.60;37.97;100305.22;30978973;28;96763;-75
2022/05/26 16:44:00;;;;;;;5.35;0.65;;;;;;;21.37;37.30;100301.44;30924960;28;100995;-74
2022/05/26 16:59:01;;;;;;;1.75;0.60;;;;;;;20.88;38.19;100299.03;30973339;28;96691;-73
2022/05/26 17:29:21;;;;;;;2.07;1.00;;;;;;;20.05;40.14;100301.63;30962541;28;96704;-72
2022/05/26 17:44:23;;;;;;;2.53;1.20;;;;;;;19.89;41.25;100311.19;30988001;28;96852;-74
2022/05/26 18:00:56;;;;;;;2.83;1.10;;;;;;;19.64;41.26;100297.75;30993581;28;97014;-74
2022/05/26 18:14:47;;;;;;;3.17;1.30;;;;;;;19.48;41.57;100301.06;31010512;28;98239;-73
2022/05/26 18:29:48;;;;;;;2.10;1.03;;;;;;;18.94;42.92;100313.31;30984418;28;97088;-74
2022/05/26 18:44:48;;;;;;;2.58;1.33;;;;;;;18.58;44.43;100304.03;30957615;28;97142;-72
2022/05/26 18:59:49;;;;;;;3.20;1.00;;;;;;;18.35;45.29;100331.59;30960420;28;96852;-73
2022/05/26 19:14:49;;;;;;;2.35;1.02;;;;;;;18.23;46.17;100339.59;30948502;28;97274;-74
2022/05/26 19:29:53;;;;;;;2.22;1.40;;;;;;;18.18;46.73;100344.78;30950699;28;97180;-77
2022/05/26 19:44:55;;;;;;;2.93;1.00;;;;;;;18.12;46.89;100352.91;30979427;28;98150;-75
2022/05/26 19:59:56;;;;;;;2.83;1.43;;;;;;;17.93;47.56;100350.94;30982089;28;96754;-74
2022/05/26 20:14:59;;;;;;;3.45;1.35;;;;;;;17.85;48.25;100361.94;30979436;28;97619;-75
2022/05/26 20:30:00;;;;;;;6.90;1.40;;;;;;;17.75;48.67;100358.84;30975732;28;97138;-75
2022/05/26 20:45:00;;;;;;;3.08;1.48;;;;;;;17.66;48.64;100360.13;30974994;28;97538;-72
2022/05/26 21:00:00;;;;;;;7.82;1.80;;;;;;;17.53;48.85;100356.44;30976363;28;96731;-72
2022/05/26 21:15:01;;;;;;;2.42;1.20;;;;;;;17.42;49.45;100359.81;30968286;28;97884;-72
2022/05/26 21:30:05;;;;;;;2.47;1.23;;;;;;;17.29;50.40;100351.75;30973434;28;97871;-72
2022/05/26 21:45:06;;;;;;;2.20;1.50;;;;;;;17.17;50.89;100340.81;30968296;28;97319;-74
2022/05/26 22:00:11;;;;;;;2.03;1.57;;;;;;;17.23;51.18;100331.88;30956248;28;97132;-72
2022/05/26 22:15:11;;;;;;;3.53;1.30;;;;;;;17.18;51.78;100334.38;30963658;28;97114;-72
2022/05/26 22:30:16;;;;;;;2.78;1.33;;;;;;;17.11;51.52;100322.81;30976916;28;97081;-71
2022/05/26 22:45:25;;;;;;;2.73;1.70;;;;;;;17.04;52.14;100303.97;30983138;28;97214;-71
2022/05/26 23:00:27;;;;;;;3.77;1.57;;;;;;;16.98;52.18;100294.88;30914725;28;97305;-72
2022/05/26 23:15:28;;;;;;;2.03;1.47;;;;;;;16.82;52.92;100273.75;30865332;28;97531;-72
2022/05/26 23:30:29;;;;;;;6.13;2.10;;;;;;;16.69;53.32;100269.22;30864216;28;102429;-72
2022/05/26 23:45:29;;;;;;;4.83;2.03;;;;;;;16.67;53.16;100260.53;30862888;28;96898;-72
